Betagas — V2KA8 — position and weather

sailwx.info

Track history (hours):
 
Tides and Currents Weather Stations Pressure Air Temp Water Temp Dewpoint Dewpoint Depression Visibility Wind Speed Wind Dir Waves Ship Positions

Betagas

Last reported at 2014-Jul-31 00:33 UTC. Time now 2014-Jul-31 01:21 UTC.
Position N 53°52' E 000°17'.

Length 114.6 m; beam 15.7 m; draft 7.4 m.

Type: Tanker. MMSI: 304050636.

Date/timePositionNaut miles runAvg speedWind from/ knotsBaromVisibWave heightAir tempDewpointWater temp
2014-Jul-31 00:33N 53°52' E 000°17'10 9.8
2014-Jul-30 23:33N 54°01' E 000°12'1010.0
2014-Jul-30 22:33N 54°10' E 000°06'1111.2
2014-Jul-30 21:33N 54°19' W 000°07'1211.9
2014-Jul-30 20:33N 54°27' W 000°21'1212.1
2014-Jul-30 19:33N 54°35' W 000°38'1312.6
2014-Jul-30 18:33N 54°39' W 000°58'7 3.4
2014-Jul-30 16:22N 54°36' W 001°10'0 0.0
2014-Jul-30 15:19N 54°36' W 001°10'0 0.0
2014-Jul-30 14:23N 54°36' W 001°10'0 0.0
2014-Jul-30 13:25N 54°36' W 001°10'0 0.0
2014-Jul-30 11:07N 54°36' W 001°10'0 0.0
2014-Jul-30 09:25N 54°36' W 001°10'0 0.0
2014-Jul-30 08:25N 54°36' W 001°10'0 0.0
2014-Jul-30 07:31N 54°36' W 001°10'0 0.0
2014-Jul-30 06:31N 54°36' W 001°10'1 0.1
2014-Jul-30 01:31N 54°37' W 001°09'7 7.4
2014-Jul-30 00:33N 54°40' W 000°59'2411.9
2014-Jul-29 22:33N 54°29' W 000°23'1211.8
2014-Jul-29 21:33N 54°20' W 000°10'1111.4
2014-Jul-29 20:33N 54°12' E 000°03'1111.0
2014-Jul-29 19:33N 54°02' E 000°12'1211.5
2014-Jul-29 18:32N 53°50' E 000°17'1111.7
2014-Jul-29 17:33N 53°39' E 000°22'10 9.9
2014-Jul-29 16:33N 53°33' E 000°10'1110.9
2014-Jul-29 15:33N 53°37' W 000°07'4 3.9
2014-Jul-29 14:32N 53°39' W 000°12'0 0.0
2014-Jul-29 13:32N 53°39' W 000°12'0 0.0
2014-Jul-29 12:32N 53°39' W 000°12'0 0.0
2014-Jul-29 11:23N 53°39' W 000°12'0 0.0
2014-Jul-29 10:32N 53°39' W 000°12'0 0.0
2014-Jul-29 09:23N 53°39' W 000°12'0 0.0
2014-Jul-29 08:05N 53°39' W 000°12'0 0.0
2014-Jul-29 07:26N 53°39' W 000°12'0 0.0
2014-Jul-29 06:29N 53°39' W 000°12'0 0.0
2014-Jul-29 05:29N 53°39' W 000°12'0 0.0
2014-Jul-29 04:29N 53°39' W 000°12'0 0.0
2014-Jul-29 03:29N 53°39' W 000°12'0 0.0
2014-Jul-29 02:32N 53°39' W 000°12'0 0.0
2014-Jul-29 01:29N 53°39' W 000°12'0 0.0
2014-Jul-29 00:29N 53°39' W 000°12'0 0.0
2014-Jul-28 23:32N 53°39' W 000°12'0 0.0
2014-Jul-28 22:32N 53°39' W 000°12'0 0.0
2014-Jul-28 21:33N 53°39' W 000°12'1 1.0
2014-Jul-28 20:33N 53°38' W 000°11'9 9.3
2014-Jul-28 19:33N 53°34' E 000°03'2 1.5
2014-Jul-28 18:33N 53°33' E 000°05'0 0.0
2014-Jul-28 17:33N 53°33' E 000°05'0 0.0
2014-Jul-28 16:33N 53°33' E 000°05'0 0.0
2014-Jul-28 15:33N 53°33' E 000°05'0 0.0
2014-Jul-28 14:33N 53°33' E 000°05'0 0.1
2014-Jul-28 13:33N 53°33' E 000°05'0 0.1
2014-Jul-28 12:33N 53°33' E 000°05'0 0.0
2014-Jul-28 11:33N 53°33' E 000°05'0 0.0
2014-Jul-28 10:33N 53°33' E 000°05'0 0.0
2014-Jul-28 09:33N 53°33' E 000°05'0 0.0
2014-Jul-28 08:33N 53°33' E 000°05'0 0.0
2014-Jul-28 07:33N 53°33' E 000°05'0 0.1
2014-Jul-28 06:33N 53°33' E 000°05'0 0.0
2014-Jul-28 05:33N 53°33' E 000°05'0 0.0
2014-Jul-28 04:33N 53°33' E 000°05'0 0.0
2014-Jul-28 03:33N 53°33' E 000°05'0 0.0
2014-Jul-28 02:33N 53°33' E 000°05'0 0.1
2014-Jul-28 01:27N 53°33' E 000°05'0 0.1
2014-Jul-28 00:21N 53°33' E 000°05'0 0.0
2014-Jul-27 23:33N 53°33' E 000°05'0 0.0
2014-Jul-27 22:33N 53°33' E 000°05'0 0.0
2014-Jul-27 21:33N 53°33' E 000°05'0 0.1
2014-Jul-27 20:34N 53°33' E 000°05'6 5.5
2014-Jul-27 19:33N 53°33' E 000°14'9 8.6
2014-Jul-27 18:33N 53°33' E 000°29'1010.4
2014-Jul-27 17:33N 53°29' E 000°45'1111.1
2014-Jul-27 16:33N 53°25' E 001°02'2411.9
2014-Jul-27 14:33N 53°05' E 001°25'1413.8
2014-Jul-27 13:34N 52°54' E 001°39'1313.4
2014-Jul-27 12:33N 52°47' E 001°57'3610.8
2014-Jul-27 09:11N 52°26' E 002°47'1810.8
2014-Jul-27 07:33N 52°17' E 003°11'1111.0
2014-Jul-27 06:33N 52°11' E 003°26'1111.3
2014-Jul-27 05:33N 52°06' E 003°43'9 9.2
2014-Jul-27 04:33N 52°02' E 003°57'7 6.9
2014-Jul-27 03:33N 51°58' E 004°05'2 1.9
2014-Jul-27 02:33N 51°58' E 004°02'0 0.0
2014-Jul-27 00:33N 51°58' E 004°02'0 0.0
2014-Jul-26 23:06N 51°58' E 004°02'0 0.0
2014-Jul-26 22:03N 51°58' E 004°02'0 0.0
2014-Jul-26 18:09N 51°58' E 004°02'0 0.0
2014-Jul-26 17:33N 51°58' E 004°02'0 0.0
2014-Jul-26 16:24N 51°58' E 004°02'0 0.0
2014-Jul-26 14:24N 51°58' E 004°02'0 0.0
2014-Jul-26 13:21N 51°58' E 004°02'0 0.0
2014-Jul-26 07:24N 51°58' E 004°02'0 0.0
2014-Jul-26 06:33N 51°58' E 004°02'0 0.0
2014-Jul-26 05:33N 51°58' E 004°02'0 0.0
2014-Jul-26 04:18N 51°58' E 004°02'0 0.0
2014-Jul-26 03:24N 51°58' E 004°02'0 0.0
2014-Jul-26 02:26N 51°58' E 004°02'0 0.1
2014-Jul-26 01:33N 51°58' E 004°02'2 1.6
2014-Jul-26 00:33N 51°59' E 004°03'1110.8
2014-Jul-25 23:33N 51°60' E 003°45'5611.1
2014-Jul-25 18:29N 52°33' E 002°30'1312.8
2014-Jul-25 17:27N 52°40' E 002°12'1112.4
2014-Jul-25 16:33N 52°46' E 001°57'1211.6
2014-Jul-25 15:34N 52°53' E 001°41'1110.9
2014-Jul-25 14:33N 53°01' E 001°29'1010.5
2014-Jul-25 13:33N 53°10' E 001°19'1110.7
2014-Jul-25 12:33N 53°19' E 001°10'1712.8
2014-Jul-25 11:15N 53°27' E 000°46'811.8
2014-Jul-25 10:33N 53°30' E 000°33'1111.1
2014-Jul-25 09:33N 53°33' E 000°15'6 5.7
2014-Jul-25 08:31N 53°33' E 000°05'0 0.0
2014-Jul-25 07:31N 53°33' E 000°05'0 0.0
2014-Jul-25 06:28N 53°33' E 000°05'0 0.1
2014-Jul-25 05:31N 53°33' E 000°05'0 0.1
2014-Jul-25 04:25N 53°33' E 000°04'0 0.0
2014-Jul-25 03:31N 53°33' E 000°04'0 0.0
2014-Jul-25 02:28N 53°33' E 000°04'0 0.0
2014-Jul-25 01:31N 53°33' E 000°04'0 0.0
2014-Jul-25 00:31N 53°33' E 000°04'0 0.1
2014-Jul-24 23:31N 53°33' E 000°05'0 0.1
2014-Jul-24 22:31N 53°33' E 000°05'0 0.0
2014-Jul-24 21:31N 53°33' E 000°05'0 0.0
2014-Jul-24 20:31N 53°33' E 000°05'0 0.0
2014-Jul-24 19:31N 53°33' E 000°05'0 0.0
2014-Jul-24 18:31N 53°33' E 000°05'0 0.1
2014-Jul-24 17:28N 53°33' E 000°05'0 0.1
2014-Jul-24 16:31N 53°33' E 000°04'0 0.1
2014-Jul-24 15:31N 53°33' E 000°04'1 0.8
2014-Jul-24 14:33N 53°34' E 000°04'10 9.7
2014-Jul-24 13:33N 53°38' W 000°11'1 1.2
2014-Jul-24 12:27N 53°39' W 000°13'0 0.0
2014-Jul-24 11:30N 53°39' W 000°13'0 0.0
2014-Jul-24 10:29N 53°39' W 000°13'0 0.0
2014-Jul-24 09:30N 53°39' W 000°13'0 0.0
2014-Jul-24 08:32N 53°39' W 000°13'0 0.0
2014-Jul-24 07:30N 53°39' W 000°13'0 0.0
2014-Jul-24 06:26N 53°39' W 000°13'0 0.0
2014-Jul-24 05:26N 53°39' W 000°13'0 0.0
2014-Jul-24 04:32N 53°39' W 000°13'0 0.0
2014-Jul-24 03:32N 53°39' W 000°13'0 0.0
2014-Jul-24 02:33N 53°39' W 000°13'0 0.0
2014-Jul-24 01:24N 53°39' W 000°13'0 0.0
2014-Jul-24 00:29N 53°39' W 000°13'0 0.0
2014-Jul-23 23:30N 53°39' W 000°13'0 0.0
2014-Jul-23 22:32N 53°39' W 000°13'0 0.0
2014-Jul-23 21:33N 53°39' W 000°13'0 0.0
2014-Jul-23 20:32N 53°39' W 000°13'0 0.0
2014-Jul-23 19:27N 53°39' W 000°13'0 0.0
2014-Jul-23 18:29N 53°39' W 000°13'0 0.0
2014-Jul-23 17:27N 53°39' W 000°13'0 0.0
2014-Jul-23 16:27N 53°39' W 000°13'0 0.0
2014-Jul-23 15:23N 53°39' W 000°13'0 0.0
2014-Jul-23 14:27N 53°39' W 000°13'0 0.0
2014-Jul-23 13:26N 53°39' W 000°13'0 0.0
2014-Jul-23 12:30N 53°39' W 000°13'0 0.0
2014-Jul-23 11:33N 53°39' W 000°13'0 0.1
2014-Jul-23 10:34N 53°39' W 000°12'8 8.2
2014-Jul-23 09:33N 53°35' E 000°00'9 9.1
2014-Jul-23 08:33N 53°33' E 000°15'9 8.4
2014-Jul-23 07:33N 53°36' E 000°29'0 0.3
2014-Jul-23 06:32N 53°36' E 000°29'0 0.1
2014-Jul-23 05:29N 53°36' E 000°29'0 0.0
2014-Jul-23 04:29N 53°36' E 000°29'0 0.0
2014-Jul-23 03:32N 53°36' E 000°29'0 0.0
2014-Jul-23 02:32N 53°36' E 000°29'0 0.0
2014-Jul-23 01:32N 53°36' E 000°29'0 0.0
2014-Jul-23 00:32N 53°36' E 000°29'0 0.0
2014-Jul-22 23:08N 53°36' E 000°29'0 0.1
2014-Jul-22 21:11N 53°36' E 000°29'0 0.0
2014-Jul-22 19:26N 53°36' E 000°29'0 0.1
2014-Jul-22 16:05N 53°36' E 000°29'0 0.0
2014-Jul-22 15:32N 53°36' E 000°29'0 0.0
2014-Jul-22 14:32N 53°36' E 000°29'0 0.0
2014-Jul-22 13:32N 53°36' E 000°29'0 0.0
2014-Jul-22 12:32N 53°36' E 000°29'0 0.1
2014-Jul-22 11:20N 53°36' E 000°29'0 0.0
2014-Jul-22 10:32N 53°36' E 000°29'0 0.1
2014-Jul-22 08:20N 53°36' E 000°29'0 0.0
2014-Jul-22 07:20N 53°36' E 000°29'0 0.0
2014-Jul-22 05:11N 53°36' E 000°29'0 0.2
2014-Jul-22 04:29N 53°36' E 000°29'0 0.0
2014-Jul-22 03:11N 53°36' E 000°29'0 0.0
2014-Jul-22 02:26N 53°36' E 000°29'0 0.0
2014-Jul-22 00:29N 53°36' E 000°29'0 0.0
2014-Jul-21 23:32N 53°36' E 000°29'0 0.0
2014-Jul-21 22:29N 53°36' E 000°29'0 0.1
2014-Jul-21 20:08N 53°36' E 000°29'0 0.0
2014-Jul-21 19:08N 53°36' E 000°29'0 0.0
2014-Jul-21 18:05N 53°36' E 000°29'0 0.0
2014-Jul-21 17:23N 53°36' E 000°29'0 0.0
2014-Jul-21 16:26N 53°36' E 000°29'0 0.2
2014-Jul-21 15:23N 53°36' E 000°28'0 0.0
2014-Jul-21 14:29N 53°36' E 000°29'0 0.0
2014-Jul-21 13:29N 53°36' E 000°29'0 0.1
2014-Jul-21 12:29N 53°36' E 000°29'7 7.6
2014-Jul-21 11:31N 53°31' E 000°37'1010.4
2014-Jul-21 10:32N 53°27' E 000°53'2611.4
2014-Jul-21 08:16N 53°08' E 001°22'912.2
2014-Jul-21 07:33N 53°00' E 001°29'1211.7
2014-Jul-21 06:33N 52°52' E 001°43'1110.6
2014-Jul-21 05:33N 52°46' E 001°58'  
Track history (hours):
 
Tides and Currents Weather Stations Pressure Air Temp Water Temp Dewpoint Dewpoint Depression Visibility Wind Speed Wind Dir Waves Ship Positions

Betagas

Last reported at 2014-Jul-31 00:33 UTC. Time now 2014-Jul-31 01:21 UTC.
Position N 53°52' E 000°17'.

Length 114.6 m; beam 15.7 m; draft 7.4 m.

Type: Tanker. MMSI: 304050636.

Date/timePositionNaut miles runAvg speedWind from/ knotsBaromVisibWave heightAir tempDewpointWater temp
2014-Jul-31 00:33N 53°52' E 000°17'10 9.8
2014-Jul-30 23:33N 54°01' E 000°12'1010.0
2014-Jul-30 22:33N 54°10' E 000°06'1111.2
2014-Jul-30 21:33N 54°19' W 000°07'1211.9
2014-Jul-30 20:33N 54°27' W 000°21'1212.1
2014-Jul-30 19:33N 54°35' W 000°38'1312.6
2014-Jul-30 18:33N 54°39' W 000°58'7 3.4
2014-Jul-30 16:22N 54°36' W 001°10'0 0.0
2014-Jul-30 15:19N 54°36' W 001°10'0 0.0
2014-Jul-30 14:23N 54°36' W 001°10'0 0.0
2014-Jul-30 13:25N 54°36' W 001°10'0 0.0
2014-Jul-30 11:07N 54°36' W 001°10'0 0.0
2014-Jul-30 09:25N 54°36' W 001°10'0 0.0
2014-Jul-30 08:25N 54°36' W 001°10'0 0.0
2014-Jul-30 07:31N 54°36' W 001°10'0 0.0
2014-Jul-30 06:31N 54°36' W 001°10'1 0.1
2014-Jul-30 01:31N 54°37' W 001°09'7 7.4
2014-Jul-30 00:33N 54°40' W 000°59'2411.9
2014-Jul-29 22:33N 54°29' W 000°23'1211.8
2014-Jul-29 21:33N 54°20' W 000°10'1111.4
2014-Jul-29 20:33N 54°12' E 000°03'1111.0
2014-Jul-29 19:33N 54°02' E 000°12'1211.5
2014-Jul-29 18:32N 53°50' E 000°17'1111.7
2014-Jul-29 17:33N 53°39' E 000°22'10 9.9
2014-Jul-29 16:33N 53°33' E 000°10'1110.9
2014-Jul-29 15:33N 53°37' W 000°07'4 3.9
2014-Jul-29 14:32N 53°39' W 000°12'0 0.0
2014-Jul-29 13:32N 53°39' W 000°12'0 0.0
2014-Jul-29 12:32N 53°39' W 000°12'0 0.0
2014-Jul-29 11:23N 53°39' W 000°12'0 0.0
2014-Jul-29 10:32N 53°39' W 000°12'0 0.0
2014-Jul-29 09:23N 53°39' W 000°12'0 0.0
2014-Jul-29 08:05N 53°39' W 000°12'0 0.0
2014-Jul-29 07:26N 53°39' W 000°12'0 0.0
2014-Jul-29 06:29N 53°39' W 000°12'0 0.0
2014-Jul-29 05:29N 53°39' W 000°12'0 0.0
2014-Jul-29 04:29N 53°39' W 000°12'0 0.0
2014-Jul-29 03:29N 53°39' W 000°12'0 0.0
2014-Jul-29 02:32N 53°39' W 000°12'0 0.0
2014-Jul-29 01:29N 53°39' W 000°12'0 0.0
2014-Jul-29 00:29N 53°39' W 000°12'0 0.0
2014-Jul-28 23:32N 53°39' W 000°12'0 0.0
2014-Jul-28 22:32N 53°39' W 000°12'0 0.0
2014-Jul-28 21:33N 53°39' W 000°12'1 1.0
2014-Jul-28 20:33N 53°38' W 000°11'9 9.3
2014-Jul-28 19:33N 53°34' E 000°03'2 1.5
2014-Jul-28 18:33N 53°33' E 000°05'0 0.0
2014-Jul-28 17:33N 53°33' E 000°05'0 0.0
2014-Jul-28 16:33N 53°33' E 000°05'0 0.0
2014-Jul-28 15:33N 53°33' E 000°05'0 0.0
2014-Jul-28 14:33N 53°33' E 000°05'0 0.1
2014-Jul-28 13:33N 53°33' E 000°05'0 0.1
2014-Jul-28 12:33N 53°33' E 000°05'0 0.0
2014-Jul-28 11:33N 53°33' E 000°05'0 0.0
2014-Jul-28 10:33N 53°33' E 000°05'0 0.0
2014-Jul-28 09:33N 53°33' E 000°05'0 0.0
2014-Jul-28 08:33N 53°33' E 000°05'0 0.0
2014-Jul-28 07:33N 53°33' E 000°05'0 0.1
2014-Jul-28 06:33N 53°33' E 000°05'0 0.0
2014-Jul-28 05:33N 53°33' E 000°05'0 0.0
2014-Jul-28 04:33N 53°33' E 000°05'0 0.0
2014-Jul-28 03:33N 53°33' E 000°05'0 0.0
2014-Jul-28 02:33N 53°33' E 000°05'0 0.1
2014-Jul-28 01:27N 53°33' E 000°05'0 0.1
2014-Jul-28 00:21N 53°33' E 000°05'0 0.0
2014-Jul-27 23:33N 53°33' E 000°05'0 0.0
2014-Jul-27 22:33N 53°33' E 000°05'0 0.0
2014-Jul-27 21:33N 53°33' E 000°05'0 0.1
2014-Jul-27 20:34N 53°33' E 000°05'6 5.5
2014-Jul-27 19:33N 53°33' E 000°14'9 8.6
2014-Jul-27 18:33N 53°33' E 000°29'1010.4
2014-Jul-27 17:33N 53°29' E 000°45'1111.1
2014-Jul-27 16:33N 53°25' E 001°02'2411.9
2014-Jul-27 14:33N 53°05' E 001°25'1413.8
2014-Jul-27 13:34N 52°54' E 001°39'1313.4
2014-Jul-27 12:33N 52°47' E 001°57'3610.8
2014-Jul-27 09:11N 52°26' E 002°47'1810.8
2014-Jul-27 07:33N 52°17' E 003°11'1111.0
2014-Jul-27 06:33N 52°11' E 003°26'1111.3
2014-Jul-27 05:33N 52°06' E 003°43'9 9.2
2014-Jul-27 04:33N 52°02' E 003°57'7 6.9
2014-Jul-27 03:33N 51°58' E 004°05'2 1.9
2014-Jul-27 02:33N 51°58' E 004°02'0 0.0
2014-Jul-27 00:33N 51°58' E 004°02'0 0.0
2014-Jul-26 23:06N 51°58' E 004°02'0 0.0
2014-Jul-26 22:03N 51°58' E 004°02'0 0.0
2014-Jul-26 18:09N 51°58' E 004°02'0 0.0
2014-Jul-26 17:33N 51°58' E 004°02'0 0.0
2014-Jul-26 16:24N 51°58' E 004°02'0 0.0
2014-Jul-26 14:24N 51°58' E 004°02'0 0.0
2014-Jul-26 13:21N 51°58' E 004°02'0 0.0
2014-Jul-26 07:24N 51°58' E 004°02'0 0.0
2014-Jul-26 06:33N 51°58' E 004°02'0 0.0
2014-Jul-26 05:33N 51°58' E 004°02'0 0.0
2014-Jul-26 04:18N 51°58' E 004°02'0 0.0
2014-Jul-26 03:24N 51°58' E 004°02'0 0.0
2014-Jul-26 02:26N 51°58' E 004°02'0 0.1
2014-Jul-26 01:33N 51°58' E 004°02'2 1.6
2014-Jul-26 00:33N 51°59' E 004°03'1110.8
2014-Jul-25 23:33N 51°60' E 003°45'5611.1
2014-Jul-25 18:29N 52°33' E 002°30'1312.8
2014-Jul-25 17:27N 52°40' E 002°12'1112.4
2014-Jul-25 16:33N 52°46' E 001°57'1211.6
2014-Jul-25 15:34N 52°53' E 001°41'1110.9
2014-Jul-25 14:33N 53°01' E 001°29'1010.5
2014-Jul-25 13:33N 53°10' E 001°19'1110.7
2014-Jul-25 12:33N 53°19' E 001°10'1712.8
2014-Jul-25 11:15N 53°27' E 000°46'811.8
2014-Jul-25 10:33N 53°30' E 000°33'1111.1
2014-Jul-25 09:33N 53°33' E 000°15'6 5.7
2014-Jul-25 08:31N 53°33' E 000°05'0 0.0
2014-Jul-25 07:31N 53°33' E 000°05'0 0.0
2014-Jul-25 06:28N 53°33' E 000°05'0 0.1
2014-Jul-25 05:31N 53°33' E 000°05'0 0.1
2014-Jul-25 04:25N 53°33' E 000°04'0 0.0
2014-Jul-25 03:31N 53°33' E 000°04'0 0.0
2014-Jul-25 02:28N 53°33' E 000°04'0 0.0
2014-Jul-25 01:31N 53°33' E 000°04'0 0.0
2014-Jul-25 00:31N 53°33' E 000°04'0 0.1
2014-Jul-24 23:31N 53°33' E 000°05'0 0.1
2014-Jul-24 22:31N 53°33' E 000°05'0 0.0
2014-Jul-24 21:31N 53°33' E 000°05'0 0.0
2014-Jul-24 20:31N 53°33' E 000°05'0 0.0
2014-Jul-24 19:31N 53°33' E 000°05'0 0.0
2014-Jul-24 18:31N 53°33' E 000°05'0 0.1
2014-Jul-24 17:28N 53°33' E 000°05'0 0.1
2014-Jul-24 16:31N 53°33' E 000°04'0 0.1
2014-Jul-24 15:31N 53°33' E 000°04'1 0.8
2014-Jul-24 14:33N 53°34' E 000°04'10 9.7
2014-Jul-24 13:33N 53°38' W 000°11'1 1.2
2014-Jul-24 12:27N 53°39' W 000°13'0 0.0
2014-Jul-24 11:30N 53°39' W 000°13'0 0.0
2014-Jul-24 10:29N 53°39' W 000°13'0 0.0
2014-Jul-24 09:30N 53°39' W 000°13'0 0.0
2014-Jul-24 08:32N 53°39' W 000°13'0 0.0
2014-Jul-24 07:30N 53°39' W 000°13'0 0.0
2014-Jul-24 06:26N 53°39' W 000°13'0 0.0
2014-Jul-24 05:26N 53°39' W 000°13'0 0.0
2014-Jul-24 04:32N 53°39' W 000°13'0 0.0
2014-Jul-24 03:32N 53°39' W 000°13'0 0.0
2014-Jul-24 02:33N 53°39' W 000°13'0 0.0
2014-Jul-24 01:24N 53°39' W 000°13'0 0.0
2014-Jul-24 00:29N 53°39' W 000°13'0 0.0
2014-Jul-23 23:30N 53°39' W 000°13'0 0.0
2014-Jul-23 22:32N 53°39' W 000°13'0 0.0
2014-Jul-23 21:33N 53°39' W 000°13'0 0.0
2014-Jul-23 20:32N 53°39' W 000°13'0 0.0
2014-Jul-23 19:27N 53°39' W 000°13'0 0.0
2014-Jul-23 18:29N 53°39' W 000°13'0 0.0
2014-Jul-23 17:27N 53°39' W 000°13'0 0.0
2014-Jul-23 16:27N 53°39' W 000°13'0 0.0
2014-Jul-23 15:23N 53°39' W 000°13'0 0.0
2014-Jul-23 14:27N 53°39' W 000°13'0 0.0
2014-Jul-23 13:26N 53°39' W 000°13'0 0.0
2014-Jul-23 12:30N 53°39' W 000°13'0 0.0
2014-Jul-23 11:33N 53°39' W 000°13'0 0.1
2014-Jul-23 10:34N 53°39' W 000°12'8 8.2
2014-Jul-23 09:33N 53°35' E 000°00'9 9.1
2014-Jul-23 08:33N 53°33' E 000°15'9 8.4
2014-Jul-23 07:33N 53°36' E 000°29'0 0.3
2014-Jul-23 06:32N 53°36' E 000°29'0 0.1
2014-Jul-23 05:29N 53°36' E 000°29'0 0.0
2014-Jul-23 04:29N 53°36' E 000°29'0 0.0
2014-Jul-23 03:32N 53°36' E 000°29'0 0.0
2014-Jul-23 02:32N 53°36' E 000°29'0 0.0
2014-Jul-23 01:32N 53°36' E 000°29'0 0.0
2014-Jul-23 00:32N 53°36' E 000°29'0 0.0
2014-Jul-22 23:08N 53°36' E 000°29'0 0.1
2014-Jul-22 21:11N 53°36' E 000°29'0 0.0
2014-Jul-22 19:26N 53°36' E 000°29'0 0.1
2014-Jul-22 16:05N 53°36' E 000°29'0 0.0
2014-Jul-22 15:32N 53°36' E 000°29'0 0.0
2014-Jul-22 14:32N 53°36' E 000°29'0 0.0
2014-Jul-22 13:32N 53°36' E 000°29'0 0.0
2014-Jul-22 12:32N 53°36' E 000°29'0 0.1
2014-Jul-22 11:20N 53°36' E 000°29'0 0.0
2014-Jul-22 10:32N 53°36' E 000°29'0 0.1
2014-Jul-22 08:20N 53°36' E 000°29'0 0.0
2014-Jul-22 07:20N 53°36' E 000°29'0 0.0
2014-Jul-22 05:11N 53°36' E 000°29'0 0.2
2014-Jul-22 04:29N 53°36' E 000°29'0 0.0
2014-Jul-22 03:11N 53°36' E 000°29'0 0.0
2014-Jul-22 02:26N 53°36' E 000°29'0 0.0
2014-Jul-22 00:29N 53°36' E 000°29'0 0.0
2014-Jul-21 23:32N 53°36' E 000°29'0 0.0
2014-Jul-21 22:29N 53°36' E 000°29'0 0.1
2014-Jul-21 20:08N 53°36' E 000°29'0 0.0
2014-Jul-21 19:08N 53°36' E 000°29'0 0.0
2014-Jul-21 18:05N 53°36' E 000°29'0 0.0
2014-Jul-21 17:23N 53°36' E 000°29'0 0.0
2014-Jul-21 16:26N 53°36' E 000°29'0 0.2
2014-Jul-21 15:23N 53°36' E 000°28'0 0.0
2014-Jul-21 14:29N 53°36' E 000°29'0 0.0
2014-Jul-21 13:29N 53°36' E 000°29'0 0.1
2014-Jul-21 12:29N 53°36' E 000°29'7 7.6
2014-Jul-21 11:31N 53°31' E 000°37'1010.4
2014-Jul-21 10:32N 53°27' E 000°53'2611.4
2014-Jul-21 08:16N 53°08' E 001°22'912.2
2014-Jul-21 07:33N 53°00' E 001°29'1211.7
2014-Jul-21 06:33N 52°52' E 001°43'1110.6
2014-Jul-21 05:33N 52°46' E 001°58'  

Dump ship's entire track history